LFLL METAR and TAF | Updated Today

LFLL METAR

Lyon Saint-Exupéry Airport

Observation time: 24 min. ago

LFLL 251930Z 34011KT CAVOK 19/07 Q1021 NOSIG

Need help? Read our tutorial on how to read METARs or read the parsed version below.

Lyon Saint-Exupéry Airport (LFLL) METAR

  • Weather conditions on Wed, 25 May 2022 19:30:00 +0000 (24 min. ago):
  • Present conditions: Dry
  • Clouds: Clear skies
  • Visibility: Greater than 10 km
  • Wind: 340 degrees at 11 knots
  • Temperature: 19 celsius
  • Dew point: 7 celsius
  • Pressure: 1021 millibars
  • Remarks: None


Useful to know...

LFLL TAF

Lyon Saint-Exupéry Airport

TAF LFLL 251700Z 2518/2624 35015KT CAVOK TEMPO 2521/2608 35005KT
Observation time: 2:54 hr. ago
Need help? Read our tutorial on how to read TAFs or read the parsed version below.

Parsed version of TAF for Lyon Saint-Exupéry Airport (LFLL)

  • From 25 May at 18:00 UTC, to day 26 of the month at 24:00 UTC
  • Visibility: Greater than 10 km
  • Wind: 350 degrees at 15
  • Expected to arise temporarily, from 25 May at 21:00 UTC, to day 26 of the month at 08:00 UTC
  • Wind: 350 degrees at 5